Niobrara, Nebraska
Current Conditions -  °F | °C
As of 8:55 PM on Wednesday 26 Nov 2014 (Local Time) from KYKN Reporting Station
Broken Clouds Broken Clouds  
Wind Chill:   Ceiling: 7000
Heat Index: 12°   Visibility: 10mi
Dew Point:   Wind: 8mph
Humidity: 79%   Direction: 310°NW
Pressure: 30.46"   Gusts: NA
Location:  42.75°N, 98.03°W
Report Text: KYKN 270255Z AUTO 31007KT 10SM BKN070 M11/M14 A3046 RMK AO1 52014
Loading
Personal Weather Stations






























Interactive Weather Map New forecast layout! Learn more

10-Day Weather Forecast

Advertisements
Track Severe Weather on mobile